sensor_id;sensor_type;location;lat;lon;timestamp;pressure;altitude;pressure_sealevel;temperature;humidity
10940;BME280;5522;42.696;23.494;2023-02-13T00:00:23;53666.84;;;-139.68;100.00
10940;BME280;5522;42.696;23.494;2023-02-13T00:02:53;53622.63;;;-139.68;100.00
10940;BME280;5522;42.696;23.494;2023-02-13T00:05:20;53648.75;;;-139.68;100.00
10940;BME280;5522;42.696;23.494;2023-02-13T00:07:47;53644.75;;;-139.68;100.00
10940;BME280;5522;42.696;23.494;2023-02-13T00:10:15;53670.88;;;-139.68;100.00
10940;BME280;5522;42.696;23.494;2023-02-13T00:12:42;53654.78;;;-139.68;100.00
10940;BME280;5522;42.696;23.494;2023-02-13T00:15:09;53636.69;;;-139.68;100.00
10940;BME280;5522;42.696;23.494;2023-02-13T00:17:36;53670.88;;;-139.68;100.00
10940;BME280;5522;42.696;23.494;2023-02-13T00:20:04;53640.72;;;-139.68;100.00
10940;BME280;5522;42.696;23.494;2023-02-13T00:22:34;53638.72;;;-139.68;100.00
10940;BME280;5522;42.696;23.494;2023-02-13T00:25:01;53646.75;;;-139.68;100.00
10940;BME280;5522;42.696;23.494;2023-02-13T00:27:29;53628.66;;;-139.68;100.00
10940;BME280;5522;42.696;23.494;2023-02-13T00:29:56;53664.84;;;-139.68;100.00
10940;BME280;5522;42.696;23.494;2023-02-13T00:32:23;53626.66;;;-139.68;100.00
10940;BME280;5522;42.696;23.494;2023-02-13T00:34:50;53668.88;;;-139.68;100.00
10940;BME280;5522;42.696;23.494;2023-02-13T00:37:17;53654.78;;;-139.68;100.00
10940;BME280;5522;42.696;23.494;2023-02-13T00:39:43;53670.88;;;-139.68;100.00
10940;BME280;5522;42.696;23.494;2023-02-13T00:42:10;53642.72;;;-139.68;100.00
10940;BME280;5522;42.696;23.494;2023-02-13T00:44:38;53668.88;;;-139.68;100.00
10940;BME280;5522;42.696;23.494;2023-02-13T00:47:05;53642.72;;;-139.68;100.00
10940;BME280;5522;42.696;23.494;2023-02-13T00:49:32;53654.78;;;-139.68;100.00
10940;BME280;5522;42.696;23.494;2023-02-13T00:51:59;53695.00;;;-139.68;100.00
10940;BME280;5522;42.696;23.494;2023-02-13T00:54:25;53648.75;;;-139.68;100.00
10940;BME280;5522;42.696;23.494;2023-02-13T00:56:52;53640.72;;;-139.68;100.00
10940;BME280;5522;42.696;23.494;2023-02-13T00:59:19;53608.56;;;-139.68;100.00
10940;BME280;5522;42.696;23.494;2023-02-13T01:06:57;53642.72;;;-139.68;100.00
10940;BME280;5522;42.696;23.494;2023-02-13T01:09:24;53648.75;;;-139.68;100.00
10940;BME280;5522;42.696;23.494;2023-02-13T01:11:51;53660.81;;;-139.68;100.00
10940;BME280;5522;42.696;23.494;2023-02-13T01:14:18;53662.84;;;-139.68;100.00
10940;BME280;5522;42.696;23.494;2023-02-13T01:16:45;53640.72;;;-139.68;100.00
10940;BME280;5522;42.696;23.494;2023-02-13T01:19:12;53654.78;;;-139.68;100.00
10940;BME280;5522;42.696;23.494;2023-02-13T01:21:38;53662.84;;;-139.68;100.00
10940;BME280;5522;42.696;23.494;2023-02-13T01:24:07;53662.84;;;-139.68;100.00
10940;BME280;5522;42.696;23.494;2023-02-13T01:26:34;53686.97;;;-139.68;100.00
10940;BME280;5522;42.696;23.494;2023-02-13T01:29:01;53642.72;;;-139.68;100.00
10940;BME280;5522;42.696;23.494;2023-02-13T01:31:27;53650.78;;;-139.68;100.00
10940;BME280;5522;42.696;23.494;2023-02-13T01:33:55;53678.91;;;-139.68;100.00
10940;BME280;5522;42.696;23.494;2023-02-13T01:36:23;53634.69;;;-139.68;100.00
10940;BME280;5522;42.696;23.494;2023-02-13T01:38:52;53658.81;;;-139.68;100.00
10940;BME280;5522;42.696;23.494;2023-02-13T01:41:21;53697.00;;;-139.68;100.00
10940;BME280;5522;42.696;23.494;2023-02-13T01:43:50;53662.84;;;-139.68;100.00
10940;BME280;5522;42.696;23.494;2023-02-13T01:46:22;53666.84;;;-139.68;100.00
10940;BME280;5522;42.696;23.494;2023-02-13T01:48:52;53666.84;;;-139.68;100.00
10940;BME280;5522;42.696;23.494;2023-02-13T01:51:23;53678.91;;;-139.68;100.00
10940;BME280;5522;42.696;23.494;2023-02-13T01:53:56;53652.78;;;-139.68;100.00
10940;BME280;5522;42.696;23.494;2023-02-13T01:56:28;53644.75;;;-139.68;100.00
10940;BME280;5522;42.696;23.494;2023-02-13T01:59:01;53638.72;;;-139.68;100.00
10940;BME280;5522;42.696;23.494;2023-02-13T02:01:31;53632.69;;;-139.68;100.00
10940;BME280;5522;42.696;23.494;2023-02-13T02:04:05;53656.81;;;-139.68;100.00
10940;BME280;5522;42.696;23.494;2023-02-13T02:06:35;53642.72;;;-139.68;100.00
10940;BME280;5522;42.696;23.494;2023-02-13T02:09:07;53674.91;;;-139.68;100.00
10940;BME280;5522;42.696;23.494;2023-02-13T02:11:41;53650.78;;;-139.68;100.00
10940;BME280;5522;42.696;23.494;2023-02-13T02:14:11;53666.84;;;-139.68;100.00
10940;BME280;5522;42.696;23.494;2023-02-13T02:16:38;53618.63;;;-139.68;100.00
10940;BME280;5522;42.696;23.494;2023-02-13T02:19:09;53670.88;;;-139.68;100.00
10940;BME280;5522;42.696;23.494;2023-02-13T02:22:03;53622.63;;;-139.68;100.00
10940;BME280;5522;42.696;23.494;2023-02-13T02:31:07;53658.81;;;-139.68;100.00
10940;BME280;5522;42.696;23.494;2023-02-13T02:33:48;53678.91;;;-139.68;100.00
10940;BME280;5522;42.696;23.494;2023-02-13T02:36:32;53703.03;;;-139.68;100.00
10940;BME280;5522;42.696;23.494;2023-02-13T02:39:07;53642.72;;;-139.68;100.00
10940;BME280;5522;42.696;23.494;2023-02-13T02:41:57;53658.81;;;-139.68;100.00
10940;BME280;5522;42.696;23.494;2023-02-13T02:44:33;53670.88;;;-139.68;100.00
10940;BME280;5522;42.696;23.494;2023-02-13T02:47:09;53670.88;;;-139.68;100.00
10940;BME280;5522;42.696;23.494;2023-02-13T02:50:19;53652.78;;;-139.68;100.00
10940;BME280;5522;42.696;23.494;2023-02-13T02:53:01;53608.56;;;-139.68;100.00
10940;BME280;5522;42.696;23.494;2023-02-13T02:55:37;53666.84;;;-139.68;100.00
10940;BME280;5522;42.696;23.494;2023-02-13T02:58:10;53695.00;;;-139.68;100.00
10940;BME280;5522;42.696;23.494;2023-02-13T03:00:59;53662.84;;;-139.68;100.00
10940;BME280;5522;42.696;23.494;2023-02-13T03:03:45;53674.91;;;-139.68;100.00
10940;BME280;5522;42.696;23.494;2023-02-13T03:06:36;53678.91;;;-139.68;100.00
10940;BME280;5522;42.696;23.494;2023-02-13T03:09:09;53638.72;;;-139.68;100.00
10940;BME280;5522;42.696;23.494;2023-02-13T03:11:55;53676.91;;;-139.68;100.00
10940;BME280;5522;42.696;23.494;2023-02-13T03:14:40;53666.84;;;-139.68;100.00
10940;BME280;5522;42.696;23.494;2023-02-13T03:17:10;53690.97;;;-139.68;100.00
10940;BME280;5522;42.696;23.494;2023-02-13T03:20:03;53656.81;;;-139.68;100.00
10940;BME280;5522;42.696;23.494;2023-02-13T03:23:01;53648.75;;;-139.68;100.00
10940;BME280;5522;42.696;23.494;2023-02-13T03:25:37;53668.88;;;-139.68;100.00
10940;BME280;5522;42.696;23.494;2023-02-13T03:28:14;53642.72;;;-139.68;100.00
10940;BME280;5522;42.696;23.494;2023-02-13T03:31:07;53676.91;;;-139.68;100.00
10940;BME280;5522;42.696;23.494;2023-02-13T03:33:47;53695.00;;;-139.68;100.00
10940;BME280;5522;42.696;23.494;2023-02-13T03:36:28;53640.72;;;-139.68;100.00
10940;BME280;5522;42.696;23.494;2023-02-13T03:39:18;53672.88;;;-139.68;100.00
10940;BME280;5522;42.696;23.494;2023-02-13T03:41:51;53652.78;;;-139.68;100.00
10940;BME280;5522;42.696;23.494;2023-02-13T03:44:26;53650.78;;;-139.68;100.00
10940;BME280;5522;42.696;23.494;2023-02-13T03:46:57;53646.75;;;-139.68;100.00
10940;BME280;5522;42.696;23.494;2023-02-13T03:49:29;53656.81;;;-139.68;100.00
10940;BME280;5522;42.696;23.494;2023-02-13T03:52:18;53648.75;;;-139.68;100.00
10940;BME280;5522;42.696;23.494;2023-02-13T03:54:53;53666.84;;;-139.68;100.00
10940;BME280;5522;42.696;23.494;2023-02-13T03:57:41;53674.91;;;-139.68;100.00
10940;BME280;5522;42.696;23.494;2023-02-13T04:00:33;53648.75;;;-139.68;100.00
10940;BME280;5522;42.696;23.494;2023-02-13T04:03:08;53610.56;;;-139.68;100.00
10940;BME280;5522;42.696;23.494;2023-02-13T04:05:39;53682.94;;;-139.68;100.00
10940;BME280;5522;42.696;23.494;2023-02-13T04:08:07;53632.69;;;-139.68;100.00
10940;BME280;5522;42.696;23.494;2023-02-13T04:10:39;53624.63;;;-139.68;100.00
10940;BME280;5522;42.696;23.494;2023-02-13T04:13:13;53650.78;;;-139.68;100.00
10940;BME280;5522;42.696;23.494;2023-02-13T04:15:47;53648.75;;;-139.68;100.00
10940;BME280;5522;42.696;23.494;2023-02-13T04:18:18;53650.78;;;-139.68;100.00
10940;BME280;5522;42.696;23.494;2023-02-13T04:20:46;53650.78;;;-139.68;100.00
10940;BME280;5522;42.696;23.494;2023-02-13T04:23:14;53678.91;;;-139.68;100.00
10940;BME280;5522;42.696;23.494;2023-02-13T04:25:45;53654.78;;;-139.68;100.00
10940;BME280;5522;42.696;23.494;2023-02-13T04:28:12;53648.75;;;-139.68;100.00
10940;BME280;5522;42.696;23.494;2023-02-13T04:30:39;53672.88;;;-139.68;100.00
10940;BME280;5522;42.696;23.494;2023-02-13T04:33:06;53638.72;;;-139.68;100.00
10940;BME280;5522;42.696;23.494;2023-02-13T04:35:33;53670.88;;;-139.68;100.00
10940;BME280;5522;42.696;23.494;2023-02-13T04:38:01;53648.75;;;-139.68;100.00
10940;BME280;5522;42.696;23.494;2023-02-13T04:40:28;53618.63;;;-139.68;100.00
10940;BME280;5522;42.696;23.494;2023-02-13T04:42:56;53688.97;;;-139.68;100.00
10940;BME280;5522;42.696;23.494;2023-02-13T04:45:23;53658.81;;;-139.68;100.00
10940;BME280;5522;42.696;23.494;2023-02-13T04:47:50;53674.91;;;-139.68;100.00
10940;BME280;5522;42.696;23.494;2023-02-13T04:50:17;53670.88;;;-139.68;100.00
10940;BME280;5522;42.696;23.494;2023-02-13T04:52:44;53640.72;;;-139.68;100.00
10940;BME280;5522;42.696;23.494;2023-02-13T04:55:12;53666.84;;;-139.68;100.00
10940;BME280;5522;42.696;23.494;2023-02-13T04:57:39;53630.66;;;-139.68;100.00
10940;BME280;5522;42.696;23.494;2023-02-13T05:00:09;53662.84;;;-139.68;100.00
10940;BME280;5522;42.696;23.494;2023-02-13T05:02:36;53632.69;;;-139.68;100.00
10940;BME280;5522;42.696;23.494;2023-02-13T05:05:03;53658.81;;;-139.68;100.00
10940;BME280;5522;42.696;23.494;2023-02-13T05:07:30;53660.81;;;-139.68;100.00
10940;BME280;5522;42.696;23.494;2023-02-13T05:09:57;53658.81;;;-139.68;100.00
10940;BME280;5522;42.696;23.494;2023-02-13T05:12:24;53622.63;;;-139.68;100.00
10940;BME280;5522;42.696;23.494;2023-02-13T05:14:50;53616.59;;;-139.68;100.00
10940;BME280;5522;42.696;23.494;2023-02-13T05:17:19;53652.78;;;-139.68;100.00
10940;BME280;5522;42.696;23.494;2023-02-13T05:19:46;53658.81;;;-139.68;100.00
10940;BME280;5522;42.696;23.494;2023-02-13T05:22:12;53602.53;;;-139.68;100.00
10940;BME280;5522;42.696;23.494;2023-02-13T05:24:57;53662.84;;;-139.68;100.00
10940;BME280;5522;42.696;23.494;2023-02-13T05:27:24;53650.78;;;-139.68;100.00
10940;BME280;5522;42.696;23.494;2023-02-13T05:29:51;53666.84;;;-139.68;100.00
10940;BME280;5522;42.696;23.494;2023-02-13T05:32:19;53672.88;;;-139.68;100.00
10940;BME280;5522;42.696;23.494;2023-02-13T05:34:46;53682.94;;;-139.68;100.00
10940;BME280;5522;42.696;23.494;2023-02-13T05:37:13;53688.97;;;-139.68;100.00
10940;BME280;5522;42.696;23.494;2023-02-13T05:39:39;53662.84;;;-139.68;100.00
10940;BME280;5522;42.696;23.494;2023-02-13T05:42:06;53662.84;;;-139.68;100.00
10940;BME280;5522;42.696;23.494;2023-02-13T05:44:35;53642.72;;;-139.68;100.00
10940;BME280;5522;42.696;23.494;2023-02-13T05:47:02;53644.75;;;-139.68;100.00
10940;BME280;5522;42.696;23.494;2023-02-13T05:49:30;53656.81;;;-139.68;100.00
10940;BME280;5522;42.696;23.494;2023-02-13T05:51:57;53646.75;;;-139.68;100.00
10940;BME280;5522;42.696;23.494;2023-02-13T05:54:24;53644.75;;;-139.68;100.00
10940;BME280;5522;42.696;23.494;2023-02-13T05:56:51;53686.97;;;-139.68;100.00
10940;BME280;5522;42.696;23.494;2023-02-13T05:59:18;53686.97;;;-139.68;100.00
10940;BME280;5522;42.696;23.494;2023-02-13T06:01:45;53676.91;;;-139.68;100.00
10940;BME280;5522;42.696;23.494;2023-02-13T06:04:11;53686.97;;;-139.68;100.00
10940;BME280;5522;42.696;23.494;2023-02-13T06:06:40;53695.00;;;-139.68;100.00
10940;BME280;5522;42.696;23.494;2023-02-13T06:09:07;53648.75;;;-139.68;100.00
10940;BME280;5522;42.696;23.494;2023-02-13T06:11:33;53678.91;;;-139.68;100.00
10940;BME280;5522;42.696;23.494;2023-02-13T06:14:00;53684.94;;;-139.68;100.00
10940;BME280;5522;42.696;23.494;2023-02-13T06:16:27;53725.16;;;-139.68;100.00
10940;BME280;5522;42.696;23.494;2023-02-13T06:18:55;53652.78;;;-139.68;100.00
10940;BME280;5522;42.696;23.494;2023-02-13T06:21:22;53676.91;;;-139.68;100.00
10940;BME280;5522;42.696;23.494;2023-02-13T06:23:50;53727.16;;;-139.68;100.00
10940;BME280;5522;42.696;23.494;2023-02-13T06:26:17;53690.97;;;-139.68;100.00
10940;BME280;5522;42.696;23.494;2023-02-13T06:28:44;53699.03;;;-139.68;100.00
10940;BME280;5522;42.696;23.494;2023-02-13T06:31:11;53688.97;;;-139.68;100.00
10940;BME280;5522;42.696;23.494;2023-02-13T06:33:38;53703.03;;;-139.68;100.00
10940;BME280;5522;42.696;23.494;2023-02-13T06:36:06;53674.91;;;-139.68;100.00
10940;BME280;5522;42.696;23.494;2023-02-13T06:38:33;53680.94;;;-139.68;100.00
10940;BME280;5522;42.696;23.494;2023-02-13T06:41:01;53693.00;;;-139.68;100.00
10940;BME280;5522;42.696;23.494;2023-02-13T06:43:28;53690.97;;;-139.68;100.00
10940;BME280;5522;42.696;23.494;2023-02-13T06:45:55;53719.13;;;-139.68;100.00
10940;BME280;5522;42.696;23.494;2023-02-13T06:48:22;53703.03;;;-139.68;100.00
10940;BME280;5522;42.696;23.494;2023-02-13T06:50:49;53686.97;;;-139.68;100.00
10940;BME280;5522;42.696;23.494;2023-02-13T06:53:17;53731.19;;;-139.68;100.00
10940;BME280;5522;42.696;23.494;2023-02-13T06:55:49;53660.81;;;-139.68;100.00
10940;BME280;5522;42.696;23.494;2023-02-13T06:58:18;53731.19;;;-139.68;98.57
10940;BME280;5522;42.696;23.494;2023-02-13T07:00:45;53717.13;;;-139.68;91.38
10940;BME280;5522;42.696;23.494;2023-02-13T07:03:12;53727.16;;;-139.68;81.69
10940;BME280;5522;42.696;23.494;2023-02-13T07:05:39;53749.28;;;-139.68;74.30
10940;BME280;5522;42.696;23.494;2023-02-13T07:08:06;53705.06;;;-139.68;70.88
10940;BME280;5522;42.696;23.494;2023-02-13T07:10:36;53737.22;;;-139.68;63.06
10940;BME280;5522;42.696;23.494;2023-02-13T07:13:03;53729.16;;;-139.68;55.72
10940;BME280;5522;42.696;23.494;2023-02-13T07:15:31;53783.44;;;-139.68;51.84
10940;BME280;5522;42.696;23.494;2023-02-13T07:17:58;53676.91;;;-139.68;56.75
10940;BME280;5522;42.696;23.494;2023-02-13T07:20:27;53735.19;;;-139.68;60.24
10940;BME280;5522;42.696;23.494;2023-02-13T07:22:56;53733.19;;;-139.68;59.84
10940;BME280;5522;42.696;23.494;2023-02-13T07:25:24;53791.50;;;-139.68;57.64
10940;BME280;5522;42.696;23.494;2023-02-13T07:27:51;53741.22;;;-139.68;57.59
10940;BME280;5522;42.696;23.494;2023-02-13T07:30:18;53749.28;;;-139.68;52.89
10940;BME280;5522;42.696;23.494;2023-02-13T07:32:46;53747.25;;;-139.68;52.96
10940;BME280;5522;42.696;23.494;2023-02-13T07:35:13;53759.31;;;-139.68;52.12
10940;BME280;5522;42.696;23.494;2023-02-13T07:37:40;53783.44;;;-139.68;49.72
10940;BME280;5522;42.696;23.494;2023-02-13T07:40:08;53763.34;;;-139.68;48.45
10940;BME280;5522;42.696;23.494;2023-02-13T07:42:34;53757.31;;;-139.68;46.52
10940;BME280;5522;42.696;23.494;2023-02-13T07:45:01;53821.66;;;-139.68;47.37
10940;BME280;5522;42.696;23.494;2023-02-13T07:47:30;53753.28;;;-139.68;45.92
10940;BME280;5522;42.696;23.494;2023-02-13T07:49:58;53759.31;;;-139.68;45.25
10940;BME280;5522;42.696;23.494;2023-02-13T07:52:25;53757.31;;;-139.68;43.19
10940;BME280;5522;42.696;23.494;2023-02-13T07:54:51;53799.53;;;-139.68;40.09
10940;BME280;5522;42.696;23.494;2023-02-13T07:57:18;53801.53;;;-139.68;41.07
10940;BME280;5522;42.696;23.494;2023-02-13T07:59:45;53801.53;;;-139.68;41.58
10940;BME280;5522;42.696;23.494;2023-02-13T08:02:13;53805.56;;;-139.68;39.72
10940;BME280;5522;42.696;23.494;2023-02-13T08:04:40;53807.56;;;-139.68;40.01
10940;BME280;5522;42.696;23.494;2023-02-13T08:07:11;53861.84;;;-139.68;39.93
10940;BME280;5522;42.696;23.494;2023-02-13T08:09:38;53809.59;;;-139.68;39.28
10940;BME280;5522;42.696;23.494;2023-02-13T08:12:22;53803.56;;;-139.68;39.83
10940;BME280;5522;42.696;23.494;2023-02-13T08:14:49;53793.50;;;-139.68;39.05
10940;BME280;5522;42.696;23.494;2023-02-13T08:17:16;53813.59;;;-139.68;39.73
10940;BME280;5522;42.696;23.494;2023-02-13T08:19:43;53811.59;;;-139.68;38.55
10940;BME280;5522;42.696;23.494;2023-02-13T08:22:11;53793.50;;;-139.68;37.70
10940;BME280;5522;42.696;23.494;2023-02-13T08:24:38;53811.59;;;-139.68;39.54
10940;BME280;5522;42.696;23.494;2023-02-13T08:27:05;53843.75;;;-139.68;37.48
10940;BME280;5522;42.696;23.494;2023-02-13T08:29:32;53851.81;;;-139.68;37.17
10940;BME280;5522;42.696;23.494;2023-02-13T08:31:59;53825.66;;;-139.68;38.60
10940;BME280;5522;42.696;23.494;2023-02-13T08:34:26;53801.53;;;-139.68;38.74
10940;BME280;5522;42.696;23.494;2023-02-13T08:36:53;53811.59;;;-139.68;38.34
10940;BME280;5522;42.696;23.494;2023-02-13T08:39:21;53803.56;;;-139.68;39.06
10940;BME280;5522;42.696;23.494;2023-02-13T08:41:48;53849.78;;;-139.68;40.61
10940;BME280;5522;42.696;23.494;2023-02-13T08:44:15;53839.75;;;-139.68;43.71
10940;BME280;5522;42.696;23.494;2023-02-13T08:46:41;53815.63;;;-139.68;45.87
10940;BME280;5522;42.696;23.494;2023-02-13T08:49:08;53777.41;;;-139.68;51.56
10940;BME280;5522;42.696;23.494;2023-02-13T08:51:35;53803.56;;;-139.68;57.32
10940;BME280;5522;42.696;23.494;2023-02-13T08:54:02;53783.44;;;-139.68;68.99
10940;BME280;5522;42.696;23.494;2023-02-13T08:56:30;53801.53;;;-139.68;70.95
10940;BME280;5522;42.696;23.494;2023-02-13T08:58:57;53787.47;;;-139.68;70.59
10940;BME280;5522;42.696;23.494;2023-02-13T09:01:24;53781.44;;;-139.68;67.08
10940;BME280;5522;42.696;23.494;2023-02-13T09:03:51;53781.44;;;-139.68;64.73
10940;BME280;5522;42.696;23.494;2023-02-13T09:06:18;53823.66;;;-139.68;57.21
10940;BME280;5522;42.696;23.494;2023-02-13T09:08:44;53839.75;;;-139.68;52.25
10940;BME280;5522;42.696;23.494;2023-02-13T09:11:11;53791.50;;;-139.68;47.12
10940;BME280;5522;42.696;23.494;2023-02-13T09:13:40;53815.63;;;-139.68;41.50
10940;BME280;5522;42.696;23.494;2023-02-13T09:16:07;53831.69;;;-139.68;40.27
10940;BME280;5522;42.696;23.494;2023-02-13T09:18:34;53805.56;;;-139.68;40.42
10940;BME280;5522;42.696;23.494;2023-02-13T09:21:04;53823.66;;;-139.68;42.12
10940;BME280;5522;42.696;23.494;2023-02-13T09:23:31;53803.56;;;-139.68;45.98
10940;BME280;5522;42.696;23.494;2023-02-13T09:25:59;53815.63;;;-139.68;50.67
10940;BME280;5522;42.696;23.494;2023-02-13T09:28:28;53795.50;;;-139.68;57.28
10940;BME280;5522;42.696;23.494;2023-02-13T09:30:56;53783.44;;;-139.68;63.12
10940;BME280;5522;42.696;23.494;2023-02-13T09:33:24;53795.50;;;-139.68;69.51
10940;BME280;5522;42.696;23.494;2023-02-13T09:35:51;53775.41;;;-139.68;67.01
10940;BME280;5522;42.696;23.494;2023-02-13T09:38:18;53743.25;;;-139.68;62.80
10940;BME280;5522;42.696;23.494;2023-02-13T09:40:48;53807.56;;;-139.68;53.69
10940;BME280;5522;42.696;23.494;2023-02-13T09:43:21;53805.56;;;-139.68;53.29
10940;BME280;5522;42.696;23.494;2023-02-13T09:45:56;53787.47;;;-139.68;52.01
10940;BME280;5522;42.696;23.494;2023-02-13T09:48:28;53775.41;;;-139.68;50.86
10940;BME280;5522;42.696;23.494;2023-02-13T09:50:56;53815.63;;;-139.68;51.34
10940;BME280;5522;42.696;23.494;2023-02-13T09:53:25;53803.56;;;-139.68;46.22
10940;BME280;5522;42.696;23.494;2023-02-13T09:56:03;53803.56;;;-139.68;43.59
10940;BME280;5522;42.696;23.494;2023-02-13T09:58:42;53823.66;;;-139.68;43.03
10940;BME280;5522;42.696;23.494;2023-02-13T10:01:20;53831.69;;;-139.68;45.37
10940;BME280;5522;42.696;23.494;2023-02-13T10:03:58;53827.69;;;-139.68;44.38
10940;BME280;5522;42.696;23.494;2023-02-13T10:06:29;53831.69;;;-139.68;41.85
10940;BME280;5522;42.696;23.494;2023-02-13T10:09:07;53851.81;;;-139.68;41.38
10940;BME280;5522;42.696;23.494;2023-02-13T10:12:01;53801.53;;;-139.68;43.79
10940;BME280;5522;42.696;23.494;2023-02-13T10:14:38;53779.44;;;-139.68;42.11
10940;BME280;5522;42.696;23.494;2023-02-13T10:17:15;53833.72;;;-139.68;39.74
10940;BME280;5522;42.696;23.494;2023-02-13T10:19:46;53859.84;;;-139.68;36.52
10940;BME280;5522;42.696;23.494;2023-02-13T10:22:16;53837.72;;;-139.68;36.38
10940;BME280;5522;42.696;23.494;2023-02-13T10:24:47;53815.63;;;-139.68;36.86
10940;BME280;5522;42.696;23.494;2023-02-13T10:27:21;53845.78;;;-139.68;36.16
10940;BME280;5522;42.696;23.494;2023-02-13T10:29:55;53833.72;;;-139.68;35.63
10940;BME280;5522;42.696;23.494;2023-02-13T10:32:41;53807.56;;;-139.68;35.06
10940;BME280;5522;42.696;23.494;2023-02-13T10:35:17;53855.81;;;-139.68;33.42
10940;BME280;5522;42.696;23.494;2023-02-13T10:37:46;53855.81;;;-139.68;33.18
10940;BME280;5522;42.696;23.494;2023-02-13T10:40:16;53871.91;;;-139.68;33.18
10940;BME280;5522;42.696;23.494;2023-02-13T10:42:45;53867.88;;;-139.68;32.36
10940;BME280;5522;42.696;23.494;2023-02-13T10:45:26;53833.72;;;-139.68;32.62
10940;BME280;5522;42.696;23.494;2023-02-13T10:48:06;53839.75;;;-139.68;32.20
10940;BME280;5522;42.696;23.494;2023-02-13T10:50:42;53883.97;;;-139.68;31.73
10940;BME280;5522;42.696;23.494;2023-02-13T10:53:16;53851.81;;;-139.68;32.74
10940;BME280;5522;42.696;23.494;2023-02-13T10:56:01;53896.03;;;-139.68;33.21
10940;BME280;5522;42.696;23.494;2023-02-13T10:58:50;53904.06;;;-139.68;33.45
10940;BME280;5522;42.696;23.494;2023-02-13T11:01:24;53875.94;;;-139.68;33.01
10940;BME280;5522;42.696;23.494;2023-02-13T11:04:04;53827.69;;;-139.68;34.11
10940;BME280;5522;42.696;23.494;2023-02-13T11:06:32;53898.03;;;-139.68;34.10
10940;BME280;5522;42.696;23.494;2023-02-13T11:08:59;53835.72;;;-139.68;34.63
10940;BME280;5522;42.696;23.494;2023-02-13T11:11:30;53875.94;;;-139.68;34.66
10940;BME280;5522;42.696;23.494;2023-02-13T11:14:09;53867.88;;;-139.68;32.50
10940;BME280;5522;42.696;23.494;2023-02-13T11:16:42;53859.84;;;-139.68;32.00
10940;BME280;5522;42.696;23.494;2023-02-13T11:19:21;53885.97;;;-139.68;31.65
10940;BME280;5522;42.696;23.494;2023-02-13T11:21:54;53875.94;;;-139.68;30.62
10940;BME280;5522;42.696;23.494;2023-02-13T11:24:23;53896.03;;;-139.68;30.55
10940;BME280;5522;42.696;23.494;2023-02-13T11:26:53;53900.06;;;-139.68;30.89
10940;BME280;5522;42.696;23.494;2023-02-13T11:29:24;53859.84;;;-139.68;31.73
10940;BME280;5522;42.696;23.494;2023-02-13T11:32:08;53847.78;;;-139.68;32.83
10940;BME280;5522;42.696;23.494;2023-02-13T11:34:44;53861.84;;;-139.68;34.41
10940;BME280;5522;42.696;23.494;2023-02-13T11:37:23;53885.97;;;-139.68;36.95
10940;BME280;5522;42.696;23.494;2023-02-13T11:39:51;53890.00;;;-139.68;38.82
10940;BME280;5522;42.696;23.494;2023-02-13T11:42:27;53863.88;;;-139.68;40.38
10940;BME280;5522;42.696;23.494;2023-02-13T11:45:00;53859.84;;;-139.68;42.92
10940;BME280;5522;42.696;23.494;2023-02-13T11:47:39;53849.78;;;-139.68;43.74
10940;BME280;5522;42.696;23.494;2023-02-13T11:50:20;53819.63;;;-139.68;44.01
10940;BME280;5522;42.696;23.494;2023-02-13T11:52:56;53825.66;;;-139.68;45.23
10940;BME280;5522;42.696;23.494;2023-02-13T11:55:27;53871.91;;;-139.68;44.16
10940;BME280;5522;42.696;23.494;2023-02-13T11:57:56;53835.72;;;-139.68;44.79
10940;BME280;5522;42.696;23.494;2023-02-13T12:00:31;53849.78;;;-139.68;44.70
10940;BME280;5522;42.696;23.494;2023-02-13T12:03:04;53914.13;;;-139.68;45.00
10940;BME280;5522;42.696;23.494;2023-02-13T12:06:02;53853.81;;;-139.68;45.31
10940;BME280;5522;42.696;23.494;2023-02-13T12:08:31;53831.69;;;-139.68;45.41
10940;BME280;5522;42.696;23.494;2023-02-13T12:10:59;53821.66;;;-139.68;45.19
10940;BME280;5522;42.696;23.494;2023-02-13T12:13:30;53861.84;;;-139.68;46.02
10940;BME280;5522;42.696;23.494;2023-02-13T12:16:01;53869.91;;;-139.68;45.98
10940;BME280;5522;42.696;23.494;2023-02-13T12:18:31;53867.88;;;-139.68;44.21
10940;BME280;5522;42.696;23.494;2023-02-13T12:21:05;53815.63;;;-139.68;45.61
10940;BME280;5522;42.696;23.494;2023-02-13T12:23:42;53831.69;;;-139.68;45.49
10940;BME280;5522;42.696;23.494;2023-02-13T12:26:30;53855.81;;;-139.68;45.93
10940;BME280;5522;42.696;23.494;2023-02-13T12:29:08;53843.75;;;-139.68;47.08
10940;BME280;5522;42.696;23.494;2023-02-13T12:31:51;53865.88;;;-139.68;46.04
10940;BME280;5522;42.696;23.494;2023-02-13T12:34:49;53867.88;;;-139.68;44.51
10940;BME280;5522;42.696;23.494;2023-02-13T12:37:35;53859.84;;;-139.68;45.25
10940;BME280;5522;42.696;23.494;2023-02-13T12:40:25;53855.81;;;-139.68;43.58
10940;BME280;5522;42.696;23.494;2023-02-13T12:43:12;53843.75;;;-139.68;43.35
10940;BME280;5522;42.696;23.494;2023-02-13T12:45:49;53831.69;;;-139.68;44.46
10940;BME280;5522;42.696;23.494;2023-02-13T12:48:28;53861.84;;;-139.68;45.04
10940;BME280;5522;42.696;23.494;2023-02-13T12:51:04;53845.78;;;-139.68;44.25
10940;BME280;5522;42.696;23.494;2023-02-13T12:53:54;53823.66;;;-139.68;42.58
10940;BME280;5522;42.696;23.494;2023-02-13T12:56:53;53827.69;;;-139.68;42.95
10940;BME280;5522;42.696;23.494;2023-02-13T12:59:32;53831.69;;;-139.68;41.88
10940;BME280;5522;42.696;23.494;2023-02-13T13:02:25;53841.75;;;-139.68;41.48
10940;BME280;5522;42.696;23.494;2023-02-13T13:05:07;53819.63;;;-139.68;41.25
10940;BME280;5522;42.696;23.494;2023-02-13T13:07:50;53819.63;;;-139.68;41.38
10940;BME280;5522;42.696;23.494;2023-02-13T13:10:34;53811.59;;;-139.68;41.16